x

Shumagin Islands - 85nm South Of Sand Point, Ak (46075) Wave Buoy

11:50am - Fri 26th Dec 2014 All times are UTC.

  • Sig Wave height 14.8ft
  • Peak Period 14s
  • Average Period 8s
  • Wind
    25mph, 31mph gusts
  • Sea Temp 44°f
  • 空気 Temp 42°f
  • Sea Pressure 1017.5mb

More Historic Weather Station data

Upgrade to MSW Pro to gain access to the past 30 days of data for over 8000 Wavebouys and Weather Stations around the globe.

Join Pro

Comparision Forecast

View Surf forecast
   
Fri 12/26 11:50am 15ft 14s 8s 25 31 mph 1017.5mb 44f 42f
10:50am 15ft 14s 8s 25 29 mph 1017mb 44f 42f
9:50am 15.5ft 13s 8s 25 29 mph 1016.8mb 44f 41f
8:50am 15.5ft 14s 8s 25 31 mph 1016.2mb 44f 41f
7:50am 18ft 14s 9s 25 31 mph 1015.6mb 44f 42f
6:50am 19ft 14s 9s 27 34 mph 1015.2mb 44f 42f
5:50am 19.5ft 14s 9s 25 34 mph 1014.7mb 44f 42f
4:50am 17ft 14s 9s 27 31 mph 1014mb 44f 41f
3:50am 19ft 14s 9s 27 36 mph 1013.7mb 44f 42f
2:50am 18.5ft 13s 9s 27 34 mph 1013.1mb 44f 42f
1:50am 19.5ft 15s 9s 27 34 mph 1012.1mb 44f 42f
12:50am 17ft 15s 9s 29 34 mph 1011.7mb 44f 42f
Thu 12/25 11:50pm 18.5ft 14s 9s 27 36 mph 1011.4mb 44f 41f
10:50pm 18.5ft 15s 9s 27 34 mph 1011.2mb 44f 41f
9:50pm 16.5ft 13s 9s 27 34 mph 1010.8mb 44f 40f
8:50pm 20ft 11s 9s 27 34 mph 1010.9mb 44f 39f
7:50pm 19.5ft 12s 9s 27 34 mph 1010.3mb 44f 40f
6:50pm 17ft 11s 8s 29 36 mph 1009.4mb 44f 41f
5:50pm 19.5ft 11s 9s 27 38 mph 1008.7mb 44f 40f
4:50pm 20.5ft 15s 9s 27 36 mph 1007.7mb 44f 41f
3:50pm 20.5ft 14s 9s 27 31 mph 1006.9mb 44f 41f
2:50pm 21.5ft 14s 9s 20 29 mph 1006.3mb 44f 40f
1:50pm 19.5ft 12s 9s 25 31 mph 1006.5mb 44f 40f
12:50pm 18.5ft 12s 9s 25 31 mph 1006.2mb 44f 39f
11:50am 18.5ft 11s 9s 29 36 mph 1005.8mb 44f 41f
10:50am 19ft 13s 9s 27 34 mph 1005.8mb 44f 41f
9:50am 20.5ft 12s 9s 29 40 mph 1005.9mb 44f 42f
8:50am 19ft 12s 8s 34 43 mph 1005.1mb 44f 42f
7:50am 19.5ft 13s 8s 29 38 mph 1004.3mb 44f 41f
6:50am  -   -   -  31 40 mph 1003.3mb 44f 42f
5:50am 19ft 14s 8s 36 47 mph 1001.6mb 44f 42f
4:50am 18.5ft 15s 8s 38 49 mph 1000.3mb 44f 43f
3:50am 17.5ft 15s 8s 36 47 mph 998.9mb 44f 43f
2:50am 17.5ft 15s 8s 43 54 mph 997mb 44f 43f
1:50am  -   -   -  27 40 mph 994.3mb 44f 43f
12:50am 13ft 11s 7s 27 31 mph 995.2mb 44f 41f
Wed 12/24 11:50pm 15.5ft 13s 8s 29 34 mph 996.7mb 44f 41f
10:50pm 13.5ft 13s 8s 25 31 mph 998.7mb 44f 41f
9:50pm 15ft 13s 9s 25 29 mph 1000.2mb 44f 42f
8:50pm 15.5ft 12s 9s 20 22 mph 1000.7mb 44f 41f
7:50pm 18ft 13s 9s 13 18 mph 1001.3mb 44f 41f
6:50pm 15.5ft 12s 9s 18 22 mph 1002.2mb 44f 42f
5:50pm 15ft 11s 8s 18 20 mph 1001.9mb 44f 42f
4:50pm 16.5ft 12s 9s 16 20 mph 1001.7mb 44f 42f
3:50pm 15.5ft 11s 8s 13 16 mph 1001.1mb 44f 42f
2:50pm 15ft 11s 8s 18 25 mph 1001.2mb 44f 42f
1:50pm 15.5ft 13s 9s 22 27 mph 1000.7mb 44f 42f
12:50pm 17.5ft 12s 9s 27 34 mph 1000.4mb 44f 43f
11:50am 15ft 11s 8s 27 31 mph 999.5mb 44f 43f
10:50am 15ft 11s 8s 25 29 mph 998.4mb 44f 43f
9:50am 15.5ft 12s 8s 25 31 mph 997mb 44f 43f
8:50am 15ft 11s 8s 27 34 mph 996mb 44f 43f
7:50am 14ft 11s 8s 27 34 mph 995.1mb 44f 43f
6:50am 14ft 11s 8s 25 31 mph 994.2mb 44f 42f
5:50am 15.5ft 10s 8s 25 34 mph 993.5mb 44f 44f
4:50am 15ft 10s 8s 20 25 mph 992.2mb 44f 43f
3:50am 16ft 11s 7s 25 31 mph 991.8mb 44f 43f
2:50am 15.5ft 10s 7s 31 38 mph 991.4mb 44f 42f
1:50am 15ft 8s 7s 38 45 mph 992.5mb 44f 41f
12:50am 14ft 8s 7s 38 47 mph 993.9mb 44f 40f
Tue 12/23 11:50pm 12.5ft 8s 6s 38 45 mph 996mb 44f 40f
10:50pm 11ft 7s 6s 38 47 mph 998mb 44f 39f
9:50pm 9ft 6s 5s 36 43 mph 1000.4mb 44f 39f
8:50pm 7.5ft 6s 5s 31 38 mph 1002.7mb 44f 38f
7:50pm 7.5ft 11s 5s 31 36 mph 1004.8mb 44f 38f
6:50pm 6ft 11s 5s 29 34 mph 1005.8mb 44f 39f
5:50pm 6ft 11s 6s 25 31 mph 1007.3mb 44f 39f
4:50pm 5.5ft 11s 6s 18 25 mph 1008.6mb 44f 38f
3:50pm 5ft 13s 7s 13 20 mph 1009.9mb 44f 38f
2:50pm 5.5ft 11s 7s 11 18 mph 1011mb 44f 37f
1:50pm 5.5ft 12s 7s 11 13 mph 1011.9mb 44f 36f
12:50pm 5.5ft 10s 7s 9 13 mph 1012.4mb 44f 37f
11:50am 6ft 11s 7s 11 18 mph 1012.9mb 44f 36f
10:50am 6ft 11s 6s 9 13 mph 1013.2mb 44f 35f
9:50am 6.5ft 12s 6s 16 20 mph 1013.3mb 44f 36f
8:50am 6ft 12s 6s 18 22 mph 1013.1mb 44f 35f
7:50am 7ft 12s 7s 16 22 mph 1013.3mb 44f 35f
6:50am 7ft 12s 7s 13 20 mph 1013.6mb 44f 35f
5:50am 7.5ft 13s 6s 18 25 mph 1013.5mb 44f 35f
4:50am 8ft 12s 7s 16 20 mph 1013.1mb 44f 34f
3:50am 8ft 9s 7s 20 25 mph 1012.4mb 44f 35f
2:50am 7.5ft 12s 6s 20 27 mph 1012.3mb 44f 35f
1:50am 8ft 13s 7s 20 27 mph 1011.9mb 44f 35f
12:50am 7ft 14s 7s 20 25 mph 1011.5mb 44f 35f
Mon 12/22 11:50pm 7.5ft 13s 7s 16 20 mph 1011.5mb 44f 35f
10:50pm 7.5ft 11s 7s 20 27 mph 1011.1mb 44f 35f
9:50pm 7ft 14s 7s 18 22 mph 1010.8mb 44f 35f
8:50pm 7ft 13s 7s 16 22 mph 1010.6mb 44f 35f
7:50pm 7.5ft 11s 7s 11 18 mph 1009.9mb 44f 36f
6:50pm 8.5ft 12s 7s 13 20 mph 1009.1mb 44f 35f
5:50pm 8.5ft 13s 7s 18 20 mph 1008.4mb 44f 35f
4:50pm 8.5ft 11s 7s 16 22 mph 1007.8mb 44f 36f
3:50pm 9.5ft 13s 7s 18 22 mph 1007.1mb 44f 36f
2:50pm 10ft 14s 8s 20 25 mph 1006.5mb 44f 37f
1:50pm 10ft 15s 8s 13 18 mph 1006mb 44f 37f
12:50pm 10ft 15s 8s 13 18 mph 1005.7mb 44f 37f